createdAt,value
2023-04-01T00:19:29.767Z,9
2023-04-01T00:48:49.713Z,8.9
2023-04-01T01:18:04.207Z,8.6
2023-04-01T01:47:14.299Z,8.5
2023-04-01T02:16:36.042Z,8.4
2023-04-01T02:45:50.908Z,8.5
2023-04-01T03:15:11.941Z,8.9
2023-04-01T03:44:01.807Z,9
2023-04-01T04:13:17.879Z,8.9
2023-04-01T04:42:37.780Z,8.9
2023-04-01T05:11:58.709Z,8.9
2023-04-01T05:41:17.631Z,8.8
2023-04-01T06:10:39.553Z,8.9
2023-04-01T06:40:01.965Z,9.2
2023-04-01T07:09:23.596Z,9.1
2023-04-01T07:38:40.775Z,9
2023-04-01T08:08:00.365Z,8.9
2023-04-01T08:37:08.645Z,8.7
2023-04-01T09:06:24.104Z,8.6
2023-04-01T09:35:28.289Z,8.6
2023-04-01T10:04:41.134Z,8.6
2023-04-01T10:34:02.825Z,8.8
2023-04-01T11:03:23.506Z,8.8
2023-04-01T11:32:33.662Z,8.9
2023-04-01T12:01:51.805Z,9
2023-04-01T12:31:07.067Z,9.2
2023-04-01T13:00:24.432Z,9.3
2023-04-01T13:29:48.769Z,9.3
2023-04-01T13:59:03.924Z,9.6
2023-04-01T14:28:18.015Z,9.9
2023-04-01T14:57:37.925Z,10.1
2023-04-01T15:26:46.930Z,10.2
2023-04-01T15:55:59.975Z,10.3
2023-04-01T16:25:13.429Z,10.4
2023-04-01T16:54:27.051Z,10.4
2023-04-01T17:23:26.941Z,10.1
2023-04-01T17:52:33.765Z,10
2023-04-01T18:21:53.912Z,9.9
2023-04-01T18:51:05.980Z,9.6
2023-04-01T19:20:29.155Z,9.4
2023-04-01T19:49:43.290Z,9.2
2023-04-01T20:18:58.113Z,8.7
2023-04-01T20:48:06.167Z,8.4
2023-04-01T21:17:16.073Z,8.2
2023-04-01T21:46:06.029Z,8.1
2023-04-01T22:15:15.610Z,8
2023-04-01T22:44:22.341Z,7.9
2023-04-01T23:13:28.962Z,7.9
2023-04-01T23:42:34.286Z,7.9
